createdAt,value
2018-08-04T00:00:54.960Z,64.8
2018-08-04T00:01:55.176Z,64.77
2018-08-04T00:02:54.956Z,64.8
2018-08-04T00:03:54.863Z,64.81
2018-08-04T00:04:54.939Z,64.81
2018-08-04T00:05:55.059Z,64.79
2018-08-04T00:06:54.999Z,64.79
2018-08-04T00:07:55.097Z,64.81
2018-08-04T00:08:54.978Z,64.81
2018-08-04T00:09:55.090Z,64.81
2018-08-04T00:10:54.981Z,64.81
2018-08-04T00:11:55.543Z,64.8
2018-08-04T00:12:55.299Z,64.78
2018-08-04T00:13:54.897Z,64.82
2018-08-04T00:14:55.131Z,64.86
2018-08-04T00:15:55.041Z,64.81
2018-08-04T00:16:54.944Z,64.79
2018-08-04T00:17:55.147Z,64.79
2018-08-04T00:18:54.984Z,64.8
2018-08-04T00:19:54.986Z,64.77
2018-08-04T00:20:54.988Z,64.82
2018-08-04T00:21:54.819Z,64.81
2018-08-04T00:22:55.393Z,64.81
2018-08-04T00:23:54.839Z,64.81
2018-08-04T00:24:55.035Z,64.82
2018-08-04T00:25:55.217Z,64.79
2018-08-04T00:26:54.950Z,64.76
2018-08-04T00:27:55.059Z,64.81
2018-08-04T00:28:54.967Z,64.8
2018-08-04T00:29:55.468Z,64.79
2018-08-04T00:30:54.771Z,64.82
2018-08-04T00:31:55.298Z,64.81
2018-08-04T00:32:54.922Z,64.81
2018-08-04T00:33:55.066Z,64.81
2018-08-04T00:34:54.987Z,64.81
2018-08-04T00:35:54.977Z,64.81
2018-08-04T00:36:54.959Z,64.76
2018-08-04T00:37:54.951Z,64.77
2018-08-04T00:38:55.004Z,64.8
2018-08-04T00:39:54.906Z,64.82
2018-08-04T00:40:54.982Z,64.77
2018-08-04T00:41:55.082Z,64.79
2018-08-04T00:42:55.069Z,64.83
2018-08-04T00:43:54.801Z,64.79
2018-08-04T00:44:54.889Z,64.8
2018-08-04T00:45:54.889Z,64.79
2018-08-04T00:46:54.984Z,64.77
2018-08-04T00:47:54.955Z,64.81
2018-08-04T00:48:54.916Z,64.8
2018-08-04T00:49:55.181Z,64.79
2018-08-04T00:50:55.047Z,64.78
2018-08-04T00:51:54.890Z,64.8
2018-08-04T00:52:55.099Z,64.76
2018-08-04T00:53:54.966Z,64.79
2018-08-04T00:54:55.061Z,64.77
2018-08-04T00:55:54.937Z,64.78
2018-08-04T00:56:55.124Z,64.76
2018-08-04T00:57:54.877Z,64.77
2018-08-04T00:58:55.119Z,64.77
2018-08-04T00:59:54.844Z,64.79
2018-08-04T01:00:55.148Z,64.78
2018-08-04T01:01:55.016Z,64.81
2018-08-04T01:02:54.935Z,64.77
2018-08-04T01:03:55.273Z,64.74
2018-08-04T01:04:54.913Z,64.73
2018-08-04T01:05:55.075Z,64.76
2018-08-04T01:06:54.828Z,64.81
2018-08-04T01:07:55.053Z,64.79
2018-08-04T01:08:54.856Z,64.8
2018-08-04T01:09:54.982Z,64.77
2018-08-04T01:10:54.897Z,64.77
2018-08-04T01:11:54.960Z,64.8
2018-08-04T01:12:54.922Z,64.79
2018-08-04T01:13:55.058Z,64.8
2018-08-04T01:14:54.963Z,64.8
2018-08-04T01:15:54.806Z,64.79
2018-08-04T01:16:55.027Z,64.81
2018-08-04T01:17:54.965Z,64.77
2018-08-04T01:18:54.848Z,64.8
2018-08-04T01:19:54.948Z,64.78
2018-08-04T01:20:54.956Z,64.78
2018-08-04T01:21:55.130Z,64.81
2018-08-04T01:22:54.889Z,64.78
2018-08-04T01:23:55.065Z,64.79
2018-08-04T01:24:54.930Z,64.78
2018-08-04T01:25:55.117Z,64.79
2018-08-04T01:26:55.180Z,64.81
2018-08-04T01:27:55.068Z,64.8
2018-08-04T01:28:55.029Z,64.8
2018-08-04T01:29:54.991Z,64.82
2018-08-04T01:30:54.844Z,64.79
2018-08-04T01:31:54.968Z,64.79
2018-08-04T01:32:55.063Z,64.79
2018-08-04T01:33:55.303Z,64.81
2018-08-04T01:34:54.968Z,64.77
2018-08-04T01:35:54.943Z,64.77
2018-08-04T01:36:54.994Z,64.79
2018-08-04T01:37:54.929Z,64.76
2018-08-04T01:38:55.059Z,64.83
2018-08-04T01:39:55.092Z,64.81
2018-08-04T01:40:54.808Z,64.77
2018-08-04T01:41:54.898Z,64.78
2018-08-04T01:42:55.541Z,64.82
2018-08-04T01:43:55.053Z,64.81
2018-08-04T01:44:55.093Z,64.79
2018-08-04T01:45:54.928Z,64.78
2018-08-04T01:46:55.031Z,64.78
2018-08-04T01:47:55.043Z,64.82
2018-08-04T01:48:54.921Z,64.8
2018-08-04T01:49:54.798Z,64.81
2018-08-04T01:50:54.881Z,64.79
2018-08-04T01:51:54.854Z,64.79
2018-08-04T01:52:54.996Z,64.81
2018-08-04T01:53:55.105Z,64.81
2018-08-04T01:54:54.850Z,64.75
2018-08-04T01:55:55.220Z,64.76
2018-08-04T01:56:55.018Z,64.78
2018-08-04T01:57:54.991Z,64.8
2018-08-04T01:58:54.927Z,64.79
2018-08-04T01:59:54.947Z,64.84
2018-08-04T02:00:54.822Z,64.76
2018-08-04T02:01:55.059Z,64.79
2018-08-04T02:02:54.894Z,64.78
2018-08-04T02:03:54.808Z,64.82
2018-08-04T02:04:54.819Z,64.8
2018-08-04T02:05:55.064Z,64.8
2018-08-04T02:06:55.372Z,64.8
2018-08-04T02:07:54.916Z,64.81
2018-08-04T02:08:54.950Z,64.8
2018-08-04T02:09:54.885Z,64.79
2018-08-04T02:10:55.055Z,64.81
2018-08-04T02:11:54.940Z,64.79
2018-08-04T02:12:54.870Z,64.78
2018-08-04T02:13:54.872Z,64.79
2018-08-04T02:14:55.044Z,64.82
2018-08-04T02:15:55.487Z,64.79
2018-08-04T02:16:55.188Z,64.8
2018-08-04T02:17:55.059Z,64.77
2018-08-04T02:18:54.934Z,64.78
2018-08-04T02:19:54.881Z,64.79
2018-08-04T02:20:54.915Z,64.81
2018-08-04T02:21:54.933Z,64.8
2018-08-04T02:22:54.937Z,64.79
2018-08-04T02:23:55.024Z,64.77
2018-08-04T02:24:54.856Z,64.82
2018-08-04T02:25:54.902Z,64.79
2018-08-04T02:26:54.876Z,64.76
2018-08-04T02:27:54.831Z,64.78
2018-08-04T02:28:54.876Z,64.79
2018-08-04T02:29:54.928Z,64.81
2018-08-04T02:30:54.980Z,64.78
2018-08-04T02:31:54.970Z,64.79
2018-08-04T02:32:55.002Z,64.76
2018-08-04T02:33:54.979Z,64.78
2018-08-04T02:34:55.024Z,64.81
2018-08-04T02:35:54.862Z,64.81
2018-08-04T02:36:54.845Z,64.79
2018-08-04T02:37:54.835Z,64.76
2018-08-04T02:38:55.034Z,64.78
2018-08-04T02:39:54.836Z,64.8
2018-08-04T02:40:55.114Z,64.79
2018-08-04T02:41:54.878Z,64.79
2018-08-04T02:42:55.052Z,64.79
2018-08-04T02:43:54.882Z,64.77
2018-08-04T02:44:54.967Z,64.81
2018-08-04T02:45:54.750Z,64.78
2018-08-04T02:46:55.006Z,64.83
2018-08-04T02:47:54.990Z,64.82
2018-08-04T02:48:55.059Z,64.77
2018-08-04T02:49:54.949Z,64.78
2018-08-04T02:50:55.008Z,64.82
2018-08-04T02:51:54.940Z,64.79
2018-08-04T02:52:55.056Z,64.75
2018-08-04T02:53:54.984Z,64.8
2018-08-04T02:54:54.815Z,64.81
2018-08-04T02:55:55.163Z,64.78
2018-08-04T02:56:55.019Z,64.79
2018-08-04T02:57:55.209Z,64.82
2018-08-04T02:58:54.854Z,64.79
2018-08-04T02:59:54.936Z,64.81
2018-08-04T03:00:54.886Z,64.76
2018-08-04T03:01:55.061Z,64.74
2018-08-04T03:02:55.175Z,64.85
2018-08-04T03:03:54.811Z,64.76
2018-08-04T03:04:55.118Z,64.77
2018-08-04T03:05:54.816Z,64.79
2018-08-04T03:06:55.025Z,64.82
2018-08-04T03:07:55.013Z,64.8
2018-08-04T03:08:54.853Z,64.79
2018-08-04T03:09:54.878Z,64.8
2018-08-04T03:10:55.076Z,64.82
2018-08-04T03:11:55.162Z,64.81
2018-08-04T03:12:54.910Z,64.79
2018-08-04T03:13:55.073Z,64.77
2018-08-04T03:14:54.984Z,64.79
2018-08-04T03:15:55.150Z,64.79
2018-08-04T03:16:55.017Z,64.79
2018-08-04T03:17:54.992Z,64.77
2018-08-04T03:18:54.926Z,64.78
2018-08-04T03:19:54.878Z,64.78
2018-08-04T03:20:55.033Z,64.8
2018-08-04T03:21:54.861Z,64.85
2018-08-04T03:22:54.857Z,64.75
2018-08-04T03:23:55.020Z,64.79
2018-08-04T03:24:55.063Z,64.81
2018-08-04T03:25:54.868Z,64.78
2018-08-04T03:26:54.992Z,64.77
2018-08-04T03:27:55.225Z,64.82
2018-08-04T03:28:54.900Z,64.79
2018-08-04T03:29:55.029Z,64.78
2018-08-04T03:30:55.159Z,64.79
2018-08-04T03:31:55.083Z,64.77
2018-08-04T03:32:55.073Z,64.81
2018-08-04T03:33:54.942Z,64.79
2018-08-04T03:34:54.903Z,64.79
2018-08-04T03:35:55.044Z,64.78
2018-08-04T03:36:55.078Z,64.8
2018-08-04T03:37:54.907Z,64.77
2018-08-04T03:38:54.973Z,64.79
2018-08-04T03:39:54.946Z,64.77
2018-08-04T03:40:55.030Z,64.81
2018-08-04T03:41:54.796Z,64.79
2018-08-04T03:42:54.954Z,64.74
2018-08-04T03:43:54.923Z,64.79
2018-08-04T03:44:55.052Z,64.79
2018-08-04T03:45:54.817Z,64.77
2018-08-04T03:46:54.944Z,64.76
2018-08-04T03:47:54.931Z,64.8
2018-08-04T03:48:55.028Z,64.77
2018-08-04T03:49:55.123Z,64.75
2018-08-04T03:50:54.786Z,64.81
2018-08-04T03:51:55.061Z,64.81
2018-08-04T03:52:54.901Z,64.77
2018-08-04T03:53:55.072Z,64.78
2018-08-04T03:54:54.950Z,64.77
2018-08-04T03:55:55.061Z,64.77
2018-08-04T03:56:54.916Z,64.77
2018-08-04T03:57:55.055Z,64.8
2018-08-04T03:58:55.021Z,64.81
2018-08-04T03:59:54.766Z,64.8
2018-08-04T04:00:55.008Z,64.78
2018-08-04T04:01:55.013Z,64.76
2018-08-04T04:02:54.858Z,64.78
2018-08-04T04:03:54.872Z,64.75
2018-08-04T04:04:54.911Z,64.8
2018-08-04T04:05:54.882Z,64.79
2018-08-04T04:06:54.900Z,64.79
2018-08-04T04:07:54.892Z,64.77
2018-08-04T04:08:54.762Z,64.83
2018-08-04T04:09:54.993Z,64.78
2018-08-04T04:10:54.804Z,64.77
2018-08-04T04:11:55.094Z,64.83
2018-08-04T04:12:55.227Z,64.76
2018-08-04T04:13:54.865Z,64.77
2018-08-04T04:14:54.917Z,64.76
2018-08-04T04:15:54.960Z,64.79
2018-08-04T04:16:55.111Z,64.82
2018-08-04T04:17:54.846Z,64.76
2018-08-04T04:18:55.000Z,64.79
2018-08-04T04:19:55.077Z,64.79
2018-08-04T04:20:54.905Z,64.79
2018-08-04T04:21:55.094Z,64.81
2018-08-04T04:22:54.948Z,64.8
2018-08-04T04:23:54.981Z,64.76
2018-08-04T04:24:55.175Z,64.82
2018-08-04T04:25:54.854Z,64.78
2018-08-04T04:26:54.827Z,64.76
2018-08-04T04:27:54.837Z,64.75
2018-08-04T04:28:55.222Z,64.77
2018-08-04T04:29:55.051Z,64.75
2018-08-04T04:30:55.187Z,64.82
2018-08-04T04:31:54.924Z,64.76
2018-08-04T04:32:54.928Z,64.8
2018-08-04T04:33:55.055Z,64.78
2018-08-04T04:34:54.919Z,64.81
2018-08-04T04:35:54.991Z,64.79
2018-08-04T04:36:55.615Z,64.79
2018-08-04T04:37:55.005Z,64.78
2018-08-04T04:38:54.867Z,64.82
2018-08-04T04:39:54.984Z,64.76
2018-08-04T04:40:55.176Z,64.79
2018-08-04T04:41:55.018Z,64.77
2018-08-04T04:42:54.876Z,64.79
2018-08-04T04:43:54.947Z,64.8
2018-08-04T04:44:54.935Z,64.74
2018-08-04T04:45:55.090Z,64.8
2018-08-04T04:46:54.727Z,64.76
2018-08-04T04:47:54.861Z,64.77
2018-08-04T04:48:54.871Z,64.79
2018-08-04T04:49:54.875Z,64.77
2018-08-04T04:50:54.855Z,64.8
2018-08-04T04:51:55.025Z,64.77
2018-08-04T04:52:54.918Z,64.77
2018-08-04T04:53:54.737Z,64.79
2018-08-04T04:54:54.897Z,64.8
2018-08-04T04:55:55.046Z,64.76
2018-08-04T04:56:54.890Z,64.79
2018-08-04T04:57:54.910Z,64.83
2018-08-04T04:58:54.857Z,64.77
2018-08-04T04:59:54.895Z,64.79
2018-08-04T05:00:54.856Z,64.78
2018-08-04T05:01:55.379Z,64.79
2018-08-04T05:02:54.892Z,64.77
2018-08-04T05:03:54.825Z,64.81
2018-08-04T05:04:55.005Z,64.76
2018-08-04T05:05:54.999Z,64.79
2018-08-04T05:06:54.837Z,64.77
2018-08-04T05:07:54.989Z,64.77
2018-08-04T05:08:54.811Z,64.76
2018-08-04T05:09:55.351Z,64.77
2018-08-04T05:10:54.822Z,64.79
2018-08-04T05:11:54.957Z,64.76
2018-08-04T05:12:55.195Z,64.77
2018-08-04T05:13:54.920Z,64.77
2018-08-04T05:14:54.995Z,64.81
2018-08-04T05:15:54.952Z,64.77
2018-08-04T05:16:55.118Z,64.75
2018-08-04T05:17:54.901Z,64.78
2018-08-04T05:18:54.800Z,64.79
2018-08-04T05:19:55.016Z,64.75
2018-08-04T05:20:55.010Z,64.75
2018-08-04T05:21:55.034Z,64.74
2018-08-04T05:22:54.899Z,64.75
2018-08-04T05:23:54.930Z,64.77
2018-08-04T05:24:55.293Z,64.81
2018-08-04T05:25:54.840Z,64.75
2018-08-04T05:26:54.915Z,64.78
2018-08-04T05:27:55.017Z,64.78
2018-08-04T05:28:54.851Z,64.79
2018-08-04T05:29:54.869Z,64.78
2018-08-04T05:30:54.908Z,64.77
2018-08-04T05:31:55.247Z,64.77
2018-08-04T05:32:54.852Z,64.75
2018-08-04T05:33:54.930Z,64.78
2018-08-04T05:34:54.888Z,64.76
2018-08-04T05:35:55.024Z,64.8
2018-08-04T05:36:54.923Z,64.75
2018-08-04T05:37:55.064Z,64.76
2018-08-04T05:38:54.718Z,64.73
2018-08-04T05:39:54.956Z,64.75
2018-08-04T05:40:54.803Z,64.73
2018-08-04T05:41:54.957Z,64.79
2018-08-04T05:42:54.891Z,64.76
2018-08-04T05:43:55.022Z,64.77
2018-08-04T05:44:55.113Z,64.76
2018-08-04T05:45:54.985Z,64.76
2018-08-04T05:46:54.879Z,64.74
2018-08-04T05:47:54.795Z,64.75
2018-08-04T05:48:54.829Z,64.73
2018-08-04T05:49:55.298Z,64.72
2018-08-04T05:50:54.919Z,64.77
2018-08-04T05:51:54.796Z,64.78
2018-08-04T05:52:54.797Z,64.73
2018-08-04T05:53:54.889Z,64.77
2018-08-04T05:54:55.017Z,64.75
2018-08-04T05:55:54.890Z,64.78
2018-08-04T05:56:54.885Z,64.78
2018-08-04T05:57:55.269Z,64.73
2018-08-04T05:58:54.678Z,64.78
2018-08-04T05:59:54.833Z,64.78
2018-08-04T06:00:54.895Z,64.72
2018-08-04T06:01:54.905Z,64.75
2018-08-04T06:02:54.837Z,64.73
2018-08-04T06:03:54.797Z,64.75
2018-08-04T06:04:55.011Z,64.74
2018-08-04T06:05:55.001Z,64.77
2018-08-04T06:06:54.931Z,64.75
2018-08-04T06:07:54.775Z,64.73
2018-08-04T06:08:54.895Z,64.74
2018-08-04T06:09:54.990Z,64.77
2018-08-04T06:10:54.876Z,64.75
2018-08-04T06:11:54.864Z,64.75
2018-08-04T06:12:54.835Z,64.73
2018-08-04T06:13:54.894Z,64.77
2018-08-04T06:14:54.938Z,64.74
2018-08-04T06:15:54.787Z,64.75
2018-08-04T06:16:54.934Z,64.72
2018-08-04T06:17:54.938Z,64.75
2018-08-04T06:18:55.003Z,64.75
2018-08-04T06:19:54.972Z,64.75
2018-08-04T06:20:54.948Z,64.75
2018-08-04T06:21:55.269Z,64.73
2018-08-04T06:22:54.959Z,64.71
2018-08-04T06:23:54.996Z,64.75
2018-08-04T06:24:55.105Z,64.73
2018-08-04T06:25:54.719Z,64.7
2018-08-04T06:26:54.875Z,64.71
2018-08-04T06:27:54.916Z,64.74
2018-08-04T06:28:54.928Z,64.77
2018-08-04T06:29:54.924Z,64.72
2018-08-04T06:30:54.964Z,64.75
2018-08-04T06:31:54.841Z,64.73
2018-08-04T06:32:54.979Z,64.76
2018-08-04T06:33:54.834Z,64.78
2018-08-04T06:34:54.915Z,64.73
2018-08-04T06:35:54.963Z,64.74
2018-08-04T06:36:54.896Z,64.75
2018-08-04T06:37:54.965Z,64.71
2018-08-04T06:38:55.047Z,64.76
2018-08-04T06:39:54.997Z,64.72
2018-08-04T06:40:55.012Z,64.74
2018-08-04T06:41:54.802Z,64.72
2018-08-04T06:42:55.169Z,64.76
2018-08-04T06:43:54.975Z,64.73
2018-08-04T06:44:54.967Z,64.72
2018-08-04T06:45:55.021Z,64.74
2018-08-04T06:46:55.006Z,64.77
2018-08-04T06:47:54.909Z,64.75
2018-08-04T06:48:55.177Z,64.75
2018-08-04T06:49:54.815Z,64.73
2018-08-04T06:50:54.852Z,64.7
2018-08-04T06:51:54.899Z,64.72
2018-08-04T06:52:55.519Z,64.73
2018-08-04T06:53:54.985Z,64.72
2018-08-04T06:54:54.928Z,64.76
2018-08-04T06:55:54.925Z,64.75
2018-08-04T06:56:55.015Z,64.77
2018-08-04T06:57:54.920Z,64.72
2018-08-04T06:58:54.821Z,64.73
2018-08-04T06:59:55.021Z,64.75
2018-08-04T07:00:55.234Z,64.75
2018-08-04T07:01:54.878Z,64.71
2018-08-04T07:02:54.921Z,64.73
2018-08-04T07:03:54.990Z,64.75
2018-08-04T07:04:55.021Z,64.73
2018-08-04T07:05:54.984Z,64.72
2018-08-04T07:06:54.924Z,64.72
2018-08-04T07:07:54.984Z,64.73
2018-08-04T07:08:54.923Z,64.75
2018-08-04T07:09:55.144Z,64.74
2018-08-04T07:10:54.927Z,64.69
2018-08-04T07:11:55.043Z,64.73
2018-08-04T07:12:54.793Z,64.75
2018-08-04T07:13:54.936Z,64.72
2018-08-04T07:14:54.814Z,64.7
2018-08-04T07:15:54.991Z,64.7
2018-08-04T07:16:55.010Z,64.71
2018-08-04T07:17:54.999Z,64.7
2018-08-04T07:18:54.953Z,64.72
2018-08-04T07:19:55.001Z,64.73
2018-08-04T07:20:54.869Z,64.74
2018-08-04T07:21:54.774Z,64.71
2018-08-04T07:22:55.825Z,64.68
2018-08-04T07:23:54.872Z,64.71
2018-08-04T07:24:54.859Z,64.72
2018-08-04T07:25:54.745Z,64.7
2018-08-04T07:26:54.786Z,64.74
2018-08-04T07:27:54.866Z,64.7
2018-08-04T07:28:55.813Z,64.7
2018-08-04T07:29:54.858Z,64.7
2018-08-04T07:30:54.812Z,64.7
2018-08-04T07:31:54.788Z,64.71
2018-08-04T07:32:54.812Z,64.73
2018-08-04T07:33:54.853Z,64.67
2018-08-04T07:34:54.820Z,64.72
2018-08-04T07:35:54.916Z,64.7
2018-08-04T07:36:54.828Z,64.71
2018-08-04T07:37:54.755Z,64.69
2018-08-04T07:38:54.824Z,64.73
2018-08-04T07:39:54.857Z,64.69
2018-08-04T07:40:55.485Z,64.71
2018-08-04T07:41:54.962Z,64.7
2018-08-04T07:42:54.790Z,64.69
2018-08-04T07:43:54.909Z,64.7
2018-08-04T07:44:54.827Z,64.68
2018-08-04T07:45:55.028Z,64.68
2018-08-04T07:46:55.182Z,64.7
2018-08-04T07:47:54.786Z,64.68
2018-08-04T07:48:55.060Z,64.7
2018-08-04T07:49:55.061Z,64.69
2018-08-04T07:50:54.864Z,64.75
2018-08-04T07:51:54.836Z,64.7
2018-08-04T07:52:54.977Z,64.69
2018-08-04T07:53:55.042Z,64.71
2018-08-04T07:54:55.015Z,64.68
2018-08-04T07:55:55.091Z,64.67
2018-08-04T07:56:54.999Z,64.68
2018-08-04T07:57:54.730Z,64.66
2018-08-04T07:58:54.983Z,64.68
2018-08-04T07:59:54.813Z,64.69
2018-08-04T08:00:54.906Z,64.69
2018-08-04T08:01:54.843Z,64.7
2018-08-04T08:02:54.842Z,65.01
2018-08-04T08:03:54.733Z,64.8
2018-08-04T08:04:55.467Z,64.72
2018-08-04T08:05:54.850Z,65.49
2018-08-04T08:06:54.835Z,65.72
2018-08-04T08:07:54.935Z,65.58
2018-08-04T08:08:54.963Z,65.22
2018-08-04T08:09:54.852Z,65.2
2018-08-04T08:10:56.041Z,65.19
2018-08-04T08:11:55.322Z,65.15
2018-08-04T08:12:55.057Z,65.25
2018-08-04T08:13:54.885Z,65.35
2018-08-04T08:14:54.856Z,65.32
2018-08-04T08:15:54.957Z,65.31
2018-08-04T08:16:54.810Z,65.29
2018-08-04T08:17:54.752Z,65.37
2018-08-04T08:18:54.889Z,65.33
2018-08-04T08:19:54.918Z,65.33
2018-08-04T08:20:54.874Z,65.34
2018-08-04T08:21:54.937Z,65.24
2018-08-04T08:22:54.931Z,65.46
2018-08-04T08:23:55.129Z,65.36
2018-08-04T08:24:55.414Z,65.46
2018-08-04T08:25:54.943Z,65.61
2018-08-04T08:26:55.620Z,65.24
2018-08-04T08:27:55.102Z,65.42
2018-08-04T08:28:54.958Z,66.24
2018-08-04T08:29:54.969Z,65.62
2018-08-04T08:30:55.041Z,65.81
2018-08-04T08:31:55.105Z,65.67
2018-08-04T08:32:55.042Z,65.65
2018-08-04T08:33:54.859Z,65.96
2018-08-04T08:34:54.999Z,66
2018-08-04T08:35:54.846Z,65.96
2018-08-04T08:36:54.926Z,65.93
2018-08-04T08:37:54.835Z,65.74
2018-08-04T08:38:54.890Z,65.56
2018-08-04T08:39:54.953Z,65.66
2018-08-04T08:40:54.942Z,65.6
2018-08-04T08:41:55.103Z,65.81
2018-08-04T08:42:54.962Z,65.78
2018-08-04T08:43:54.815Z,65.78
2018-08-04T08:44:54.858Z,65.62
2018-08-04T08:45:54.831Z,65.71
2018-08-04T08:46:54.788Z,65.65
2018-08-04T08:47:54.956Z,65.6
2018-08-04T08:48:54.829Z,65.54
2018-08-04T08:49:54.942Z,65.62
2018-08-04T08:50:55.100Z,65.84
2018-08-04T08:51:54.834Z,65.8
2018-08-04T08:52:54.942Z,65.69
2018-08-04T08:53:55.982Z,65.67
2018-08-04T08:54:54.937Z,65.67
2018-08-04T08:55:54.825Z,65.58
2018-08-04T08:56:54.895Z,65.7
2018-08-04T08:57:54.955Z,65.64
2018-08-04T08:58:54.986Z,65.6
2018-08-04T08:59:54.901Z,65.6
2018-08-04T09:00:54.956Z,65.6
2018-08-04T09:01:54.835Z,65.62
2018-08-04T09:02:54.908Z,65.66
2018-08-04T09:03:55.025Z,65.62
2018-08-04T09:04:55.021Z,65.62
2018-08-04T09:05:54.929Z,65.69
2018-08-04T09:06:54.880Z,65.66
2018-08-04T09:07:54.895Z,65.67
2018-08-04T09:08:54.912Z,65.65
2018-08-04T09:09:54.831Z,65.82
2018-08-04T09:10:55.007Z,65.82
2018-08-04T09:11:54.970Z,65.8
2018-08-04T09:12:54.862Z,65.66
2018-08-04T09:13:54.828Z,65.79
2018-08-04T09:14:55.097Z,65.76
2018-08-04T09:15:54.880Z,65.67
2018-08-04T09:16:55.084Z,65.63
2018-08-04T09:17:54.969Z,65.61
2018-08-04T09:18:54.892Z,65.5
2018-08-04T09:19:54.945Z,65.51
2018-08-04T09:20:54.875Z,65.54
2018-08-04T09:21:54.913Z,65.56
2018-08-04T09:22:55.168Z,65.61
2018-08-04T09:23:54.818Z,65.65
2018-08-04T09:24:54.842Z,65.77
2018-08-04T09:25:54.865Z,65.44
2018-08-04T09:26:54.869Z,65.53
2018-08-04T09:27:54.882Z,65.76
2018-08-04T09:28:55.706Z,65.87
2018-08-04T09:29:54.968Z,65.96
2018-08-04T09:30:55.645Z,66
2018-08-04T09:31:54.805Z,66.03
2018-08-04T09:32:54.974Z,66.09
2018-08-04T09:33:54.879Z,66.14
2018-08-04T09:34:54.908Z,66.04
2018-08-04T09:35:55.136Z,66.07
2018-08-04T09:36:55.009Z,66.1
2018-08-04T09:37:54.915Z,66.09
2018-08-04T09:38:54.899Z,66
2018-08-04T09:39:54.800Z,66.08
2018-08-04T09:40:54.786Z,66.06
2018-08-04T09:41:55.011Z,66.02
2018-08-04T09:42:54.774Z,66.05
2018-08-04T09:43:54.955Z,65.96
2018-08-04T09:44:56.795Z,66.01
2018-08-04T09:45:54.923Z,65.94
2018-08-04T09:46:55.634Z,66.01
2018-08-04T09:47:55.035Z,65.89
2018-08-04T09:48:54.822Z,65.94
2018-08-04T09:49:56.327Z,65.91
2018-08-04T09:50:55.777Z,65.82
2018-08-04T09:51:54.808Z,65.83
2018-08-04T09:52:54.772Z,65.89
2018-08-04T09:53:56.466Z,65.79
2018-08-04T09:54:54.800Z,65.78
2018-08-04T09:55:54.902Z,65.82
2018-08-04T09:56:54.982Z,65.82
2018-08-04T09:57:54.986Z,65.75
2018-08-04T09:58:54.797Z,65.66
2018-08-04T09:59:54.768Z,65.64
2018-08-04T10:00:55.551Z,65.81
2018-08-04T10:01:54.951Z,65.72
2018-08-04T10:02:54.747Z,65.62
2018-08-04T10:03:54.895Z,65.62
2018-08-04T10:04:54.887Z,65.56
2018-08-04T10:05:54.838Z,65.66
2018-08-04T10:06:54.896Z,65.65
2018-08-04T10:07:54.808Z,65.6
2018-08-04T10:08:54.833Z,65.48
2018-08-04T10:09:54.661Z,65.38
2018-08-04T10:10:54.979Z,65.4
2018-08-04T10:11:54.925Z,65.39
2018-08-04T10:12:54.834Z,65.47
2018-08-04T10:13:54.722Z,65.44
2018-08-04T10:14:54.896Z,65.43
2018-08-04T10:15:54.860Z,65.35
2018-08-04T10:16:54.758Z,65.38
2018-08-04T10:17:54.820Z,65.35
2018-08-04T10:18:54.730Z,65.24
2018-08-04T10:19:54.881Z,65.31
2018-08-04T10:20:54.905Z,65.31
2018-08-04T10:21:54.862Z,65.28
2018-08-04T10:22:54.951Z,65.29
2018-08-04T10:23:55.084Z,65.27
2018-08-04T10:24:54.938Z,65.28
2018-08-04T10:25:55.283Z,65.29
2018-08-04T10:26:54.864Z,65.28
2018-08-04T10:27:54.739Z,65.24
2018-08-04T10:28:54.961Z,65.29
2018-08-04T10:29:54.874Z,65.2
2018-08-04T10:30:55.003Z,65.16
2018-08-04T10:31:55.327Z,65.11
2018-08-04T10:32:54.790Z,65.24
2018-08-04T10:33:54.999Z,65.13
2018-08-04T10:34:55.044Z,65.19
2018-08-04T10:35:55.627Z,65.13
2018-08-04T10:36:54.761Z,65.13
2018-08-04T10:37:54.889Z,65.16
2018-08-04T10:38:56.061Z,65.25
2018-08-04T10:39:55.180Z,65.07
2018-08-04T10:40:57.323Z,65.11
2018-08-04T10:41:55.189Z,65.14
2018-08-04T10:42:55.086Z,65.08
2018-08-04T10:43:55.283Z,65.16
2018-08-04T10:44:54.848Z,65.08
2018-08-04T10:45:54.880Z,65.17
2018-08-04T10:46:54.956Z,65.18
2018-08-04T10:47:54.818Z,65.18
2018-08-04T10:48:54.915Z,65.12
2018-08-04T10:49:55.168Z,65.11
2018-08-04T10:50:54.815Z,65.06
2018-08-04T10:51:54.873Z,65.07
2018-08-04T10:52:54.845Z,65.08
2018-08-04T10:53:54.965Z,65.06
2018-08-04T10:54:54.870Z,65.01
2018-08-04T10:55:54.957Z,65.03
2018-08-04T10:56:55.356Z,65.12
2018-08-04T10:57:54.779Z,64.96
2018-08-04T10:58:54.858Z,65.06
2018-08-04T10:59:54.852Z,65.08
2018-08-04T11:00:54.888Z,65.05
2018-08-04T11:01:55.045Z,65.07
2018-08-04T11:02:54.924Z,65.08
2018-08-04T11:03:55.504Z,65.02
2018-08-04T11:04:54.706Z,65.05
2018-08-04T11:05:54.901Z,65.06
2018-08-04T11:06:54.886Z,65.06
2018-08-04T11:07:54.932Z,65.02
2018-08-04T11:08:54.911Z,65.04
2018-08-04T11:09:55.036Z,65.03
2018-08-04T11:10:54.689Z,65.06
2018-08-04T11:11:54.993Z,65.07
2018-08-04T11:12:54.840Z,65.05
2018-08-04T11:13:54.984Z,65.05
2018-08-04T11:14:54.734Z,65.06
2018-08-04T11:15:55.195Z,65
2018-08-04T11:16:55.088Z,65.02
2018-08-04T11:17:55.184Z,65.04
2018-08-04T11:18:54.850Z,65.01
2018-08-04T11:19:55.037Z,64.98
2018-08-04T11:20:54.872Z,65.07
2018-08-04T11:21:54.998Z,65.02
2018-08-04T11:22:54.920Z,65.02
2018-08-04T11:23:54.913Z,65.08
2018-08-04T11:24:54.855Z,65.05
2018-08-04T11:25:54.911Z,65.06
2018-08-04T11:26:54.859Z,65.04
2018-08-04T11:27:55.059Z,65.08
2018-08-04T11:28:54.823Z,65.05
2018-08-04T11:29:54.958Z,65.07
2018-08-04T11:30:55.775Z,65.17
2018-08-04T11:31:54.804Z,65.15
2018-08-04T11:32:54.807Z,65.41
2018-08-04T11:33:54.917Z,65.34
2018-08-04T11:34:54.781Z,65.38
2018-08-04T11:35:54.712Z,65.34
2018-08-04T11:36:54.895Z,65.27
2018-08-04T11:37:54.900Z,65.32
2018-08-04T11:38:55.162Z,65.26
2018-08-04T11:39:54.889Z,65.2
2018-08-04T11:40:54.997Z,65.25
2018-08-04T11:41:54.820Z,65.24
2018-08-04T11:42:54.784Z,65.23
2018-08-04T11:43:54.895Z,65.17
2018-08-04T11:44:55.082Z,65.22
2018-08-04T11:45:55.105Z,65.19
2018-08-04T11:46:54.840Z,65.16
2018-08-04T11:47:54.876Z,65.17
2018-08-04T11:48:54.976Z,65.22
2018-08-04T11:49:55.042Z,65.16
2018-08-04T11:50:54.732Z,65.18
2018-08-04T11:51:54.952Z,65.16
2018-08-04T11:52:55.154Z,65.17
2018-08-04T11:53:54.976Z,65.14
2018-08-04T11:54:54.940Z,65.15
2018-08-04T11:55:54.936Z,65.1
2018-08-04T11:56:54.695Z,65.12
2018-08-04T11:57:54.890Z,65.13
2018-08-04T11:58:54.861Z,65.11
2018-08-04T11:59:54.828Z,65.08
2018-08-04T12:00:55.088Z,65.1
2018-08-04T12:01:55.258Z,65.11
2018-08-04T12:02:54.817Z,65.11
2018-08-04T12:03:55.004Z,65.08
2018-08-04T12:04:54.811Z,65.05
2018-08-04T12:05:54.868Z,65.12
2018-08-04T12:06:55.021Z,65.09
2018-08-04T12:07:54.934Z,65.09
2018-08-04T12:08:55.323Z,65.06
2018-08-04T12:09:54.874Z,65.06
2018-08-04T12:10:54.739Z,65.1
2018-08-04T12:11:54.910Z,65.11
2018-08-04T12:12:54.999Z,65.09
2018-08-04T12:13:54.820Z,65.03
2018-08-04T12:14:54.635Z,65.23
2018-08-04T12:15:54.783Z,65.13
2018-08-04T12:16:55.043Z,65.17
2018-08-04T12:17:54.787Z,65.59
2018-08-04T12:18:54.876Z,65.61
2018-08-04T12:19:54.712Z,65.52
2018-08-04T12:21:05.395Z,65.47
2018-08-04T12:21:54.874Z,65.31
2018-08-04T12:22:54.811Z,65.36
2018-08-04T12:23:54.995Z,65.35
2018-08-04T12:24:54.947Z,65.27
2018-08-04T12:25:54.899Z,65.38
2018-08-04T12:26:54.833Z,65.3
2018-08-04T12:27:54.944Z,65.27
2018-08-04T12:28:54.784Z,65.27
2018-08-04T12:29:54.942Z,65.21
2018-08-04T12:30:55.082Z,65.23
2018-08-04T12:31:54.751Z,65.33
2018-08-04T12:32:54.894Z,65.28
2018-08-04T12:33:55.010Z,65.4
2018-08-04T12:34:54.838Z,65.33
2018-08-04T12:35:54.712Z,65.29
2018-08-04T12:36:54.860Z,65.28
2018-08-04T12:37:54.652Z,65.23
2018-08-04T12:38:54.876Z,65.23
2018-08-04T12:39:54.973Z,65.27
2018-08-04T12:40:55.054Z,65.81
2018-08-04T12:41:54.966Z,65.58
2018-08-04T12:42:54.884Z,65.51
2018-08-04T12:43:54.914Z,65.42
2018-08-04T12:44:54.916Z,65.42
2018-08-04T12:45:56.872Z,65.51
2018-08-04T12:46:54.680Z,65.44
2018-08-04T12:47:54.873Z,65.48
2018-08-04T12:48:54.974Z,65.46
2018-08-04T12:49:54.814Z,65.63
2018-08-04T12:50:54.687Z,65.73
2018-08-04T12:51:55.115Z,65.85
2018-08-04T12:52:54.741Z,65.83
2018-08-04T12:53:54.774Z,66.16
2018-08-04T12:54:54.968Z,66.04
2018-08-04T12:55:54.814Z,66.07